sensor_id;sensor_type;location;lat;lon;timestamp;P1;durP1;ratioP1;P2;durP2;ratioP2
83284;SDS011;73191;50.074;8.488;2024-03-17T00:01:50;6.22;;;3.80;;
83284;SDS011;73191;50.074;8.488;2024-03-17T00:04:17;7.05;;;3.30;;
83284;SDS011;73191;50.074;8.488;2024-03-17T00:06:46;4.68;;;3.47;;
83284;SDS011;73191;50.074;8.488;2024-03-17T00:09:12;5.72;;;3.25;;
83284;SDS011;73191;50.074;8.488;2024-03-17T00:11:38;6.15;;;3.40;;
83284;SDS011;73191;50.074;8.488;2024-03-17T00:14:05;5.25;;;2.97;;
83284;SDS011;73191;50.074;8.488;2024-03-17T00:18:58;9.20;;;4.18;;
83284;SDS011;73191;50.074;8.488;2024-03-17T00:21:24;8.48;;;4.35;;
83284;SDS011;73191;50.074;8.488;2024-03-17T00:23:53;7.25;;;3.97;;
83284;SDS011;73191;50.074;8.488;2024-03-17T00:26:18;9.63;;;4.55;;
83284;SDS011;73191;50.074;8.488;2024-03-17T00:28:45;6.43;;;3.53;;
83284;SDS011;73191;50.074;8.488;2024-03-17T00:31:13;10.07;;;4.22;;
83284;SDS011;73191;50.074;8.488;2024-03-17T00:33:41;6.22;;;3.63;;
83284;SDS011;73191;50.074;8.488;2024-03-17T00:36:06;6.47;;;3.45;;
83284;SDS011;73191;50.074;8.488;2024-03-17T00:38:33;7.05;;;3.42;;
83284;SDS011;73191;50.074;8.488;2024-03-17T00:41:00;6.28;;;3.63;;
83284;SDS011;73191;50.074;8.488;2024-03-17T00:43:29;7.82;;;3.53;;
83284;SDS011;73191;50.074;8.488;2024-03-17T00:45:54;6.72;;;3.53;;
83284;SDS011;73191;50.074;8.488;2024-03-17T00:48:21;7.50;;;3.40;;
83284;SDS011;73191;50.074;8.488;2024-03-17T00:50:47;8.55;;;4.30;;
83284;SDS011;73191;50.074;8.488;2024-03-17T00:53:21;7.55;;;3.78;;
83284;SDS011;73191;50.074;8.488;2024-03-17T00:55:50;5.60;;;3.33;;
83284;SDS011;73191;50.074;8.488;2024-03-17T00:58:18;6.50;;;3.55;;
83284;SDS011;73191;50.074;8.488;2024-03-17T01:00:45;4.97;;;3.05;;
83284;SDS011;73191;50.074;8.488;2024-03-17T01:03:13;4.72;;;2.92;;
83284;SDS011;73191;50.074;8.488;2024-03-17T01:05:40;5.00;;;2.85;;
83284;SDS011;73191;50.074;8.488;2024-03-17T01:08:07;6.75;;;3.30;;
83284;SDS011;73191;50.074;8.488;2024-03-17T01:10:36;6.28;;;3.38;;
83284;SDS011;73191;50.074;8.488;2024-03-17T01:13:03;5.78;;;2.75;;
83284;SDS011;73191;50.074;8.488;2024-03-17T01:15:32;4.65;;;3.00;;
83284;SDS011;73191;50.074;8.488;2024-03-17T01:17:58;7.10;;;3.20;;
83284;SDS011;73191;50.074;8.488;2024-03-17T01:20:25;5.13;;;3.13;;
83284;SDS011;73191;50.074;8.488;2024-03-17T01:22:51;6.10;;;2.92;;
83284;SDS011;73191;50.074;8.488;2024-03-17T01:25:18;5.63;;;3.17;;
83284;SDS011;73191;50.074;8.488;2024-03-17T01:27:44;6.30;;;3.05;;
83284;SDS011;73191;50.074;8.488;2024-03-17T01:30:11;8.13;;;3.72;;
83284;SDS011;73191;50.074;8.488;2024-03-17T01:32:39;6.47;;;3.17;;
83284;SDS011;73191;50.074;8.488;2024-03-17T01:35:05;9.02;;;4.55;;
83284;SDS011;73191;50.074;8.488;2024-03-17T01:37:31;6.78;;;3.95;;
83284;SDS011;73191;50.074;8.488;2024-03-17T01:39:58;7.28;;;3.67;;
83284;SDS011;73191;50.074;8.488;2024-03-17T01:42:24;7.32;;;3.90;;
83284;SDS011;73191;50.074;8.488;2024-03-17T01:44:51;8.98;;;4.03;;
83284;SDS011;73191;50.074;8.488;2024-03-17T01:47:16;6.20;;;3.17;;
83284;SDS011;73191;50.074;8.488;2024-03-17T01:49:45;6.10;;;3.25;;
83284;SDS011;73191;50.074;8.488;2024-03-17T01:52:11;6.32;;;3.50;;
83284;SDS011;73191;50.074;8.488;2024-03-17T01:54:38;6.88;;;3.33;;
83284;SDS011;73191;50.074;8.488;2024-03-17T01:57:04;6.45;;;3.42;;
83284;SDS011;73191;50.074;8.488;2024-03-17T01:59:31;6.47;;;3.95;;
83284;SDS011;73191;50.074;8.488;2024-03-17T02:01:56;6.03;;;3.35;;
83284;SDS011;73191;50.074;8.488;2024-03-17T02:04:23;7.88;;;3.75;;
83284;SDS011;73191;50.074;8.488;2024-03-17T02:06:50;4.32;;;2.80;;
83284;SDS011;73191;50.074;8.488;2024-03-17T02:09:17;6.43;;;3.80;;
83284;SDS011;73191;50.074;8.488;2024-03-17T02:11:45;6.55;;;4.38;;
83284;SDS011;73191;50.074;8.488;2024-03-17T02:14:12;4.95;;;3.60;;
83284;SDS011;73191;50.074;8.488;2024-03-17T02:16:39;6.68;;;3.72;;
83284;SDS011;73191;50.074;8.488;2024-03-17T02:19:06;5.78;;;3.08;;
83284;SDS011;73191;50.074;8.488;2024-03-17T02:21:32;4.82;;;3.35;;
83284;SDS011;73191;50.074;8.488;2024-03-17T02:24:00;5.07;;;3.60;;
83284;SDS011;73191;50.074;8.488;2024-03-17T02:26:27;5.65;;;3.78;;
83284;SDS011;73191;50.074;8.488;2024-03-17T02:28:54;5.50;;;3.13;;
83284;SDS011;73191;50.074;8.488;2024-03-17T02:31:20;6.00;;;3.20;;
83284;SDS011;73191;50.074;8.488;2024-03-17T02:33:47;7.28;;;3.80;;
83284;SDS011;73191;50.074;8.488;2024-03-17T02:36:13;5.05;;;3.65;;
83284;SDS011;73191;50.074;8.488;2024-03-17T02:38:42;6.85;;;3.50;;
83284;SDS011;73191;50.074;8.488;2024-03-17T02:41:28;5.38;;;3.45;;
83284;SDS011;73191;50.074;8.488;2024-03-17T02:43:55;6.35;;;3.45;;
83284;SDS011;73191;50.074;8.488;2024-03-17T02:46:21;6.97;;;3.15;;
83284;SDS011;73191;50.074;8.488;2024-03-17T02:48:49;6.30;;;2.90;;
83284;SDS011;73191;50.074;8.488;2024-03-17T02:51:17;6.85;;;2.85;;
83284;SDS011;73191;50.074;8.488;2024-03-17T02:53:45;6.13;;;2.85;;
83284;SDS011;73191;50.074;8.488;2024-03-17T02:56:12;5.72;;;3.30;;
83284;SDS011;73191;50.074;8.488;2024-03-17T02:58:43;7.15;;;3.65;;
83284;SDS011;73191;50.074;8.488;2024-03-17T03:01:11;5.70;;;3.30;;
83284;SDS011;73191;50.074;8.488;2024-03-17T03:03:38;6.00;;;3.75;;
83284;SDS011;73191;50.074;8.488;2024-03-17T03:06:05;6.15;;;3.25;;
83284;SDS011;73191;50.074;8.488;2024-03-17T03:08:34;7.30;;;3.92;;
83284;SDS011;73191;50.074;8.488;2024-03-17T03:11:03;5.28;;;3.50;;
83284;SDS011;73191;50.074;8.488;2024-03-17T03:13:31;5.43;;;3.88;;
83284;SDS011;73191;50.074;8.488;2024-03-17T03:15:59;7.53;;;4.30;;
83284;SDS011;73191;50.074;8.488;2024-03-17T03:18:26;5.10;;;3.38;;
83284;SDS011;73191;50.074;8.488;2024-03-17T03:20:53;7.28;;;3.38;;
83284;SDS011;73191;50.074;8.488;2024-03-17T03:25:46;4.20;;;3.35;;
83284;SDS011;73191;50.074;8.488;2024-03-17T03:28:13;6.68;;;3.17;;
83284;SDS011;73191;50.074;8.488;2024-03-17T03:33:08;6.55;;;3.30;;
83284;SDS011;73191;50.074;8.488;2024-03-17T03:35:35;8.05;;;3.05;;
83284;SDS011;73191;50.074;8.488;2024-03-17T03:38:02;4.85;;;3.03;;
83284;SDS011;73191;50.074;8.488;2024-03-17T03:40:29;5.10;;;3.03;;
83284;SDS011;73191;50.074;8.488;2024-03-17T03:42:56;5.10;;;2.97;;
83284;SDS011;73191;50.074;8.488;2024-03-17T03:45:23;7.22;;;3.17;;
83284;SDS011;73191;50.074;8.488;2024-03-17T03:47:50;6.47;;;3.35;;
83284;SDS011;73191;50.074;8.488;2024-03-17T03:52:45;5.28;;;2.50;;
83284;SDS011;73191;50.074;8.488;2024-03-17T03:57:40;4.53;;;2.60;;
83284;SDS011;73191;50.074;8.488;2024-03-17T04:00:07;4.60;;;2.47;;
83284;SDS011;73191;50.074;8.488;2024-03-17T04:02:37;5.15;;;2.60;;
83284;SDS011;73191;50.074;8.488;2024-03-17T04:05:04;6.13;;;2.50;;
83284;SDS011;73191;50.074;8.488;2024-03-17T04:07:33;6.57;;;2.58;;
83284;SDS011;73191;50.074;8.488;2024-03-17T04:10:01;6.68;;;2.90;;
83284;SDS011;73191;50.074;8.488;2024-03-17T04:12:27;4.75;;;2.80;;
83284;SDS011;73191;50.074;8.488;2024-03-17T04:14:56;5.65;;;2.92;;
83284;SDS011;73191;50.074;8.488;2024-03-17T04:19:49;5.60;;;2.22;;
83284;SDS011;73191;50.074;8.488;2024-03-17T04:24:44;3.20;;;2.45;;
83284;SDS011;73191;50.074;8.488;2024-03-17T04:27:11;4.85;;;2.60;;
83284;SDS011;73191;50.074;8.488;2024-03-17T04:29:38;5.28;;;2.63;;
83284;SDS011;73191;50.074;8.488;2024-03-17T04:32:05;5.50;;;2.70;;
83284;SDS011;73191;50.074;8.488;2024-03-17T04:34:33;3.58;;;2.22;;
83284;SDS011;73191;50.074;8.488;2024-03-17T04:39:26;3.95;;;2.20;;
83284;SDS011;73191;50.074;8.488;2024-03-17T04:41:54;4.00;;;2.55;;
83284;SDS011;73191;50.074;8.488;2024-03-17T04:44:21;3.65;;;2.33;;
83284;SDS011;73191;50.074;8.488;2024-03-17T04:46:48;4.35;;;2.50;;
83284;SDS011;73191;50.074;8.488;2024-03-17T04:51:41;3.10;;;2.05;;
83284;SDS011;73191;50.074;8.488;2024-03-17T04:56:34;4.35;;;2.25;;
83284;SDS011;73191;50.074;8.488;2024-03-17T05:01:30;6.63;;;2.60;;
83284;SDS011;73191;50.074;8.488;2024-03-17T05:04:01;6.80;;;2.50;;
83284;SDS011;73191;50.074;8.488;2024-03-17T05:06:28;3.85;;;2.72;;
83284;SDS011;73191;50.074;8.488;2024-03-17T05:08:55;4.03;;;2.42;;
83284;SDS011;73191;50.074;8.488;2024-03-17T05:13:49;3.15;;;2.40;;
83284;SDS011;73191;50.074;8.488;2024-03-17T05:16:17;6.97;;;2.35;;
83284;SDS011;73191;50.074;8.488;2024-03-17T05:18:44;4.80;;;2.80;;
83284;SDS011;73191;50.074;8.488;2024-03-17T05:21:11;3.30;;;2.30;;
83284;SDS011;73191;50.074;8.488;2024-03-17T05:23:38;4.95;;;2.55;;
83284;SDS011;73191;50.074;8.488;2024-03-17T05:26:05;4.30;;;2.80;;
83284;SDS011;73191;50.074;8.488;2024-03-17T05:28:32;4.78;;;3.08;;
83284;SDS011;73191;50.074;8.488;2024-03-17T05:30:59;4.93;;;2.53;;
83284;SDS011;73191;50.074;8.488;2024-03-17T05:33:27;3.83;;;2.60;;
83284;SDS011;73191;50.074;8.488;2024-03-17T05:35:54;3.92;;;2.17;;
83284;SDS011;73191;50.074;8.488;2024-03-17T05:38:22;4.75;;;2.80;;
83284;SDS011;73191;50.074;8.488;2024-03-17T05:40:55;6.40;;;2.55;;
83284;SDS011;73191;50.074;8.488;2024-03-17T05:43:23;4.75;;;2.80;;
83284;SDS011;73191;50.074;8.488;2024-03-17T05:45:50;5.90;;;2.70;;
83284;SDS011;73191;50.074;8.488;2024-03-17T05:48:17;4.57;;;2.63;;
83284;SDS011;73191;50.074;8.488;2024-03-17T05:53:12;4.50;;;2.78;;
83284;SDS011;73191;50.074;8.488;2024-03-17T05:55:39;6.75;;;3.10;;
83284;SDS011;73191;50.074;8.488;2024-03-17T05:58:08;4.28;;;3.03;;
83284;SDS011;73191;50.074;8.488;2024-03-17T06:00:35;5.38;;;2.38;;
83284;SDS011;73191;50.074;8.488;2024-03-17T06:03:02;3.95;;;2.67;;
83284;SDS011;73191;50.074;8.488;2024-03-17T06:05:31;5.20;;;2.95;;
83284;SDS011;73191;50.074;8.488;2024-03-17T06:07:59;6.38;;;2.92;;
83284;SDS011;73191;50.074;8.488;2024-03-17T06:10:27;5.75;;;3.25;;
83284;SDS011;73191;50.074;8.488;2024-03-17T06:12:54;7.72;;;3.20;;
83284;SDS011;73191;50.074;8.488;2024-03-17T06:15:21;5.82;;;3.20;;
83284;SDS011;73191;50.074;8.488;2024-03-17T06:17:48;5.68;;;3.88;;
83284;SDS011;73191;50.074;8.488;2024-03-17T06:20:17;6.93;;;3.35;;
83284;SDS011;73191;50.074;8.488;2024-03-17T06:22:43;5.60;;;3.83;;
83284;SDS011;73191;50.074;8.488;2024-03-17T06:25:12;7.90;;;3.63;;
83284;SDS011;73191;50.074;8.488;2024-03-17T06:27:39;7.00;;;3.25;;
83284;SDS011;73191;50.074;8.488;2024-03-17T06:30:05;5.15;;;2.75;;
83284;SDS011;73191;50.074;8.488;2024-03-17T06:32:32;3.85;;;2.80;;
83284;SDS011;73191;50.074;8.488;2024-03-17T06:37:27;5.80;;;2.88;;
83284;SDS011;73191;50.074;8.488;2024-03-17T06:42:22;5.13;;;2.80;;
83284;SDS011;73191;50.074;8.488;2024-03-17T06:44:49;5.38;;;3.10;;
83284;SDS011;73191;50.074;8.488;2024-03-17T06:47:16;4.95;;;3.17;;
83284;SDS011;73191;50.074;8.488;2024-03-17T06:49:44;5.43;;;3.75;;
83284;SDS011;73191;50.074;8.488;2024-03-17T06:52:11;5.35;;;3.13;;
83284;SDS011;73191;50.074;8.488;2024-03-17T06:57:05;4.88;;;3.42;;
83284;SDS011;73191;50.074;8.488;2024-03-17T06:59:33;7.15;;;4.32;;
83284;SDS011;73191;50.074;8.488;2024-03-17T07:02:00;6.80;;;3.83;;
83284;SDS011;73191;50.074;8.488;2024-03-17T07:04:27;7.15;;;4.03;;
83284;SDS011;73191;50.074;8.488;2024-03-17T07:06:54;8.93;;;4.40;;
83284;SDS011;73191;50.074;8.488;2024-03-17T07:11:47;6.63;;;3.80;;
83284;SDS011;73191;50.074;8.488;2024-03-17T07:14:15;7.95;;;4.35;;
83284;SDS011;73191;50.074;8.488;2024-03-17T07:16:43;6.63;;;4.30;;
83284;SDS011;73191;50.074;8.488;2024-03-17T07:19:10;7.35;;;4.55;;
83284;SDS011;73191;50.074;8.488;2024-03-17T07:21:36;5.95;;;4.05;;
83284;SDS011;73191;50.074;8.488;2024-03-17T07:24:03;7.70;;;4.20;;
83284;SDS011;73191;50.074;8.488;2024-03-17T07:26:30;7.00;;;4.25;;
83284;SDS011;73191;50.074;8.488;2024-03-17T07:28:58;7.45;;;4.15;;
83284;SDS011;73191;50.074;8.488;2024-03-17T07:31:24;6.25;;;4.20;;
83284;SDS011;73191;50.074;8.488;2024-03-17T07:33:52;6.32;;;3.95;;
83284;SDS011;73191;50.074;8.488;2024-03-17T07:36:19;8.68;;;4.60;;
83284;SDS011;73191;50.074;8.488;2024-03-17T07:38:47;5.43;;;3.88;;
83284;SDS011;73191;50.074;8.488;2024-03-17T07:41:14;8.50;;;4.75;;
83284;SDS011;73191;50.074;8.488;2024-03-17T07:43:40;6.75;;;4.70;;
83284;SDS011;73191;50.074;8.488;2024-03-17T07:46:07;8.02;;;4.35;;
83284;SDS011;73191;50.074;8.488;2024-03-17T07:48:37;8.50;;;4.28;;
83284;SDS011;73191;50.074;8.488;2024-03-17T07:51:06;7.78;;;4.20;;
83284;SDS011;73191;50.074;8.488;2024-03-17T07:53:34;6.55;;;4.68;;
83284;SDS011;73191;50.074;8.488;2024-03-17T07:56:01;7.38;;;4.70;;
83284;SDS011;73191;50.074;8.488;2024-03-17T07:58:30;8.10;;;4.55;;
83284;SDS011;73191;50.074;8.488;2024-03-17T08:00:58;7.60;;;4.30;;
83284;SDS011;73191;50.074;8.488;2024-03-17T08:03:26;7.18;;;4.13;;
83284;SDS011;73191;50.074;8.488;2024-03-17T08:05:53;7.65;;;4.68;;
83284;SDS011;73191;50.074;8.488;2024-03-17T08:08:21;7.90;;;4.47;;
83284;SDS011;73191;50.074;8.488;2024-03-17T08:10:48;7.90;;;4.40;;
83284;SDS011;73191;50.074;8.488;2024-03-17T08:13:15;6.50;;;4.10;;
83284;SDS011;73191;50.074;8.488;2024-03-17T08:15:42;7.75;;;4.45;;
83284;SDS011;73191;50.074;8.488;2024-03-17T08:18:09;6.38;;;4.13;;
83284;SDS011;73191;50.074;8.488;2024-03-17T08:20:36;5.60;;;4.13;;
83284;SDS011;73191;50.074;8.488;2024-03-17T08:23:04;7.60;;;4.55;;
83284;SDS011;73191;50.074;8.488;2024-03-17T08:25:33;10.90;;;4.50;;
83284;SDS011;73191;50.074;8.488;2024-03-17T08:28:00;5.20;;;3.47;;
83284;SDS011;73191;50.074;8.488;2024-03-17T08:30:27;7.82;;;4.43;;
83284;SDS011;73191;50.074;8.488;2024-03-17T08:32:53;6.50;;;4.00;;
83284;SDS011;73191;50.074;8.488;2024-03-17T08:35:20;11.43;;;4.40;;
83284;SDS011;73191;50.074;8.488;2024-03-17T08:37:47;6.25;;;3.90;;
83284;SDS011;73191;50.074;8.488;2024-03-17T08:40:14;6.00;;;4.07;;
83284;SDS011;73191;50.074;8.488;2024-03-17T08:42:41;6.03;;;3.50;;
83284;SDS011;73191;50.074;8.488;2024-03-17T08:45:08;4.80;;;3.75;;
83284;SDS011;73191;50.074;8.488;2024-03-17T08:47:36;7.22;;;4.30;;
83284;SDS011;73191;50.074;8.488;2024-03-17T08:50:03;6.18;;;4.35;;
83284;SDS011;73191;50.074;8.488;2024-03-17T08:52:33;6.82;;;3.88;;
83284;SDS011;73191;50.074;8.488;2024-03-17T08:54:59;5.47;;;3.60;;
83284;SDS011;73191;50.074;8.488;2024-03-17T08:57:28;8.27;;;3.78;;
83284;SDS011;73191;50.074;8.488;2024-03-17T08:59:56;6.07;;;3.35;;
83284;SDS011;73191;50.074;8.488;2024-03-17T09:02:23;6.03;;;3.50;;
83284;SDS011;73191;50.074;8.488;2024-03-17T09:04:50;5.50;;;3.90;;
83284;SDS011;73191;50.074;8.488;2024-03-17T09:07:17;4.40;;;3.17;;
83284;SDS011;73191;50.074;8.488;2024-03-17T09:09:44;5.18;;;3.50;;
83284;SDS011;73191;50.074;8.488;2024-03-17T09:12:13;7.97;;;4.15;;
83284;SDS011;73191;50.074;8.488;2024-03-17T09:14:39;5.50;;;3.70;;
83284;SDS011;73191;50.074;8.488;2024-03-17T09:17:08;6.00;;;3.70;;
83284;SDS011;73191;50.074;8.488;2024-03-17T09:19:34;4.97;;;3.63;;
83284;SDS011;73191;50.074;8.488;2024-03-17T09:22:01;7.00;;;3.63;;
83284;SDS011;73191;50.074;8.488;2024-03-17T09:24:27;7.90;;;3.78;;
83284;SDS011;73191;50.074;8.488;2024-03-17T09:26:54;4.90;;;3.25;;
83284;SDS011;73191;50.074;8.488;2024-03-17T09:29:20;4.57;;;3.55;;
83284;SDS011;73191;50.074;8.488;2024-03-17T09:31:47;5.70;;;3.28;;
83284;SDS011;73191;50.074;8.488;2024-03-17T09:34:18;5.40;;;3.53;;
83284;SDS011;73191;50.074;8.488;2024-03-17T09:36:44;6.68;;;3.97;;
83284;SDS011;73191;50.074;8.488;2024-03-17T09:39:11;5.07;;;3.70;;
83284;SDS011;73191;50.074;8.488;2024-03-17T09:41:39;6.13;;;3.50;;
83284;SDS011;73191;50.074;8.488;2024-03-17T09:44:09;7.18;;;3.65;;
83284;SDS011;73191;50.074;8.488;2024-03-17T09:46:38;5.93;;;3.72;;
83284;SDS011;73191;50.074;8.488;2024-03-17T09:49:07;7.43;;;4.03;;
83284;SDS011;73191;50.074;8.488;2024-03-17T09:51:38;9.02;;;4.00;;
83284;SDS011;73191;50.074;8.488;2024-03-17T09:54:05;6.20;;;3.95;;
83284;SDS011;73191;50.074;8.488;2024-03-17T09:56:43;6.07;;;3.70;;
83284;SDS011;73191;50.074;8.488;2024-03-17T09:59:10;6.97;;;3.65;;
83284;SDS011;73191;50.074;8.488;2024-03-17T10:01:36;6.88;;;3.78;;
83284;SDS011;73191;50.074;8.488;2024-03-17T10:04:03;7.18;;;4.15;;
83284;SDS011;73191;50.074;8.488;2024-03-17T10:06:30;5.50;;;3.95;;
83284;SDS011;73191;50.074;8.488;2024-03-17T10:08:59;5.63;;;4.00;;
83284;SDS011;73191;50.074;8.488;2024-03-17T10:11:32;7.78;;;4.38;;
83284;SDS011;73191;50.074;8.488;2024-03-17T10:14:01;8.77;;;4.13;;
83284;SDS011;73191;50.074;8.488;2024-03-17T10:16:29;6.35;;;3.80;;
83284;SDS011;73191;50.074;8.488;2024-03-17T10:19:05;4.82;;;3.88;;
83284;SDS011;73191;50.074;8.488;2024-03-17T10:21:32;6.35;;;4.00;;
83284;SDS011;73191;50.074;8.488;2024-03-17T10:24:08;6.47;;;4.00;;
83284;SDS011;73191;50.074;8.488;2024-03-17T10:26:36;6.32;;;3.58;;
83284;SDS011;73191;50.074;8.488;2024-03-17T10:29:04;4.47;;;3.47;;
83284;SDS011;73191;50.074;8.488;2024-03-17T10:31:31;6.57;;;3.35;;
83284;SDS011;73191;50.074;8.488;2024-03-17T10:34:01;5.03;;;2.97;;
83284;SDS011;73191;50.074;8.488;2024-03-17T10:36:28;6.30;;;3.20;;
83284;SDS011;73191;50.074;8.488;2024-03-17T10:38:55;5.50;;;3.53;;
83284;SDS011;73191;50.074;8.488;2024-03-17T10:41:24;6.63;;;3.63;;
83284;SDS011;73191;50.074;8.488;2024-03-17T10:43:52;5.10;;;2.90;;
83284;SDS011;73191;50.074;8.488;2024-03-17T10:46:19;3.97;;;2.60;;
83284;SDS011;73191;50.074;8.488;2024-03-17T10:48:48;5.10;;;2.72;;
83284;SDS011;73191;50.074;8.488;2024-03-17T10:51:16;3.67;;;2.45;;
83284;SDS011;73191;50.074;8.488;2024-03-17T10:53:43;6.82;;;3.15;;
83284;SDS011;73191;50.074;8.488;2024-03-17T10:56:14;6.53;;;2.70;;
83284;SDS011;73191;50.074;8.488;2024-03-17T10:58:44;4.07;;;3.15;;
83284;SDS011;73191;50.074;8.488;2024-03-17T11:01:13;5.05;;;3.15;;
83284;SDS011;73191;50.074;8.488;2024-03-17T11:03:40;4.43;;;2.85;;
83284;SDS011;73191;50.074;8.488;2024-03-17T11:06:09;4.78;;;3.08;;
83284;SDS011;73191;50.074;8.488;2024-03-17T11:08:35;5.35;;;2.95;;
83284;SDS011;73191;50.074;8.488;2024-03-17T11:11:03;6.82;;;3.13;;
83284;SDS011;73191;50.074;8.488;2024-03-17T11:13:31;6.63;;;3.15;;
83284;SDS011;73191;50.074;8.488;2024-03-17T11:16:00;6.10;;;3.35;;
83284;SDS011;73191;50.074;8.488;2024-03-17T11:18:36;5.60;;;2.90;;
83284;SDS011;73191;50.074;8.488;2024-03-17T11:21:05;6.05;;;3.35;;
83284;SDS011;73191;50.074;8.488;2024-03-17T11:23:40;4.32;;;2.63;;
83284;SDS011;73191;50.074;8.488;2024-03-17T11:26:08;5.35;;;3.05;;
83284;SDS011;73191;50.074;8.488;2024-03-17T11:28:47;3.85;;;2.42;;
83284;SDS011;73191;50.074;8.488;2024-03-17T11:31:35;5.45;;;2.60;;
83284;SDS011;73191;50.074;8.488;2024-03-17T11:36:54;3.92;;;2.53;;
83284;SDS011;73191;50.074;8.488;2024-03-17T11:39:21;4.80;;;2.13;;
83284;SDS011;73191;50.074;8.488;2024-03-17T11:42:23;7.18;;;2.83;;
83284;SDS011;73191;50.074;8.488;2024-03-17T11:44:58;4.20;;;2.95;;
83284;SDS011;73191;50.074;8.488;2024-03-17T11:50:08;6.32;;;2.72;;
83284;SDS011;73191;50.074;8.488;2024-03-17T11:52:36;8.43;;;2.85;;
83284;SDS011;73191;50.074;8.488;2024-03-17T11:55:03;6.63;;;3.08;;
83284;SDS011;73191;50.074;8.488;2024-03-17T11:57:30;5.18;;;3.00;;
83284;SDS011;73191;50.074;8.488;2024-03-17T11:59:56;4.03;;;3.03;;
83284;SDS011;73191;50.074;8.488;2024-03-17T12:02:23;5.63;;;2.75;;
83284;SDS011;73191;50.074;8.488;2024-03-17T12:04:52;5.22;;;2.55;;
83284;SDS011;73191;50.074;8.488;2024-03-17T12:07:21;3.92;;;2.80;;
83284;SDS011;73191;50.074;8.488;2024-03-17T12:09:49;4.50;;;2.90;;
83284;SDS011;73191;50.074;8.488;2024-03-17T12:12:17;5.82;;;3.08;;
83284;SDS011;73191;50.074;8.488;2024-03-17T12:14:44;4.45;;;2.70;;
83284;SDS011;73191;50.074;8.488;2024-03-17T12:17:11;5.78;;;3.42;;
83284;SDS011;73191;50.074;8.488;2024-03-17T12:19:39;5.28;;;3.15;;
83284;SDS011;73191;50.074;8.488;2024-03-17T12:22:08;3.40;;;2.53;;
83284;SDS011;73191;50.074;8.488;2024-03-17T12:24:41;5.85;;;2.80;;
83284;SDS011;73191;50.074;8.488;2024-03-17T12:27:13;4.82;;;2.90;;
83284;SDS011;73191;50.074;8.488;2024-03-17T12:29:42;5.82;;;3.17;;
83284;SDS011;73191;50.074;8.488;2024-03-17T12:32:11;6.45;;;3.60;;
83284;SDS011;73191;50.074;8.488;2024-03-17T12:34:38;6.47;;;3.67;;
83284;SDS011;73191;50.074;8.488;2024-03-17T12:37:06;7.95;;;3.78;;
83284;SDS011;73191;50.074;8.488;2024-03-17T12:42:01;6.70;;;3.65;;
83284;SDS011;73191;50.074;8.488;2024-03-17T12:44:29;5.10;;;3.20;;
83284;SDS011;73191;50.074;8.488;2024-03-17T12:46:57;7.40;;;3.70;;
83284;SDS011;73191;50.074;8.488;2024-03-17T12:49:23;6.20;;;3.35;;
83284;SDS011;73191;50.074;8.488;2024-03-17T12:51:51;5.68;;;2.92;;
83284;SDS011;73191;50.074;8.488;2024-03-17T12:56:47;5.43;;;3.22;;
83284;SDS011;73191;50.074;8.488;2024-03-17T12:59:38;6.60;;;4.03;;
83284;SDS011;73191;50.074;8.488;2024-03-17T13:02:25;8.95;;;4.72;;
83284;SDS011;73191;50.074;8.488;2024-03-17T13:07:48;7.78;;;4.90;;
83284;SDS011;73191;50.074;8.488;2024-03-17T13:10:16;8.45;;;4.57;;
83284;SDS011;73191;50.074;8.488;2024-03-17T13:12:45;7.53;;;4.07;;
83284;SDS011;73191;50.074;8.488;2024-03-17T13:15:13;7.65;;;4.38;;
83284;SDS011;73191;50.074;8.488;2024-03-17T13:17:41;7.10;;;4.05;;
83284;SDS011;73191;50.074;8.488;2024-03-17T13:20:08;10.13;;;4.07;;
83284;SDS011;73191;50.074;8.488;2024-03-17T13:22:40;6.80;;;4.30;;
83284;SDS011;73191;50.074;8.488;2024-03-17T13:25:14;7.88;;;4.15;;
83284;SDS011;73191;50.074;8.488;2024-03-17T13:27:42;7.65;;;3.88;;
83284;SDS011;73191;50.074;8.488;2024-03-17T13:30:11;6.78;;;4.15;;
83284;SDS011;73191;50.074;8.488;2024-03-17T13:32:38;10.02;;;4.43;;
83284;SDS011;73191;50.074;8.488;2024-03-17T13:35:05;8.48;;;4.07;;
83284;SDS011;73191;50.074;8.488;2024-03-17T13:37:33;6.95;;;3.83;;
83284;SDS011;73191;50.074;8.488;2024-03-17T13:40:00;9.00;;;4.43;;
83284;SDS011;73191;50.074;8.488;2024-03-17T13:42:30;7.55;;;4.07;;
83284;SDS011;73191;50.074;8.488;2024-03-17T13:44:57;6.70;;;4.45;;
83284;SDS011;73191;50.074;8.488;2024-03-17T13:47:25;7.30;;;4.50;;
83284;SDS011;73191;50.074;8.488;2024-03-17T13:49:52;9.50;;;4.07;;
83284;SDS011;73191;50.074;8.488;2024-03-17T13:52:19;8.80;;;4.00;;
83284;SDS011;73191;50.074;8.488;2024-03-17T13:54:45;9.55;;;4.60;;
83284;SDS011;73191;50.074;8.488;2024-03-17T13:57:13;7.65;;;3.97;;
83284;SDS011;73191;50.074;8.488;2024-03-17T13:59:41;6.22;;;3.60;;
83284;SDS011;73191;50.074;8.488;2024-03-17T14:02:08;7.65;;;4.53;;
83284;SDS011;73191;50.074;8.488;2024-03-17T14:04:39;6.57;;;4.38;;
83284;SDS011;73191;50.074;8.488;2024-03-17T14:07:06;7.18;;;4.65;;
83284;SDS011;73191;50.074;8.488;2024-03-17T14:09:33;8.82;;;4.05;;
83284;SDS011;73191;50.074;8.488;2024-03-17T14:12:00;8.23;;;4.00;;
83284;SDS011;73191;50.074;8.488;2024-03-17T14:14:27;6.50;;;3.65;;
83284;SDS011;73191;50.074;8.488;2024-03-17T14:16:54;8.18;;;4.32;;
83284;SDS011;73191;50.074;8.488;2024-03-17T14:19:21;7.65;;;4.32;;
83284;SDS011;73191;50.074;8.488;2024-03-17T14:21:49;8.32;;;4.28;;
83284;SDS011;73191;50.074;8.488;2024-03-17T14:24:16;9.65;;;5.00;;
83284;SDS011;73191;50.074;8.488;2024-03-17T14:26:43;9.18;;;4.88;;
83284;SDS011;73191;50.074;8.488;2024-03-17T14:29:10;9.45;;;4.55;;
83284;SDS011;73191;50.074;8.488;2024-03-17T14:31:36;12.65;;;5.07;;
83284;SDS011;73191;50.074;8.488;2024-03-17T14:34:04;10.68;;;5.03;;
83284;SDS011;73191;50.074;8.488;2024-03-17T14:36:32;8.38;;;5.00;;
83284;SDS011;73191;50.074;8.488;2024-03-17T14:39:00;10.85;;;4.97;;
83284;SDS011;73191;50.074;8.488;2024-03-17T14:41:27;12.35;;;5.28;;
83284;SDS011;73191;50.074;8.488;2024-03-17T14:43:54;9.60;;;5.22;;
83284;SDS011;73191;50.074;8.488;2024-03-17T14:46:22;10.30;;;5.20;;
83284;SDS011;73191;50.074;8.488;2024-03-17T14:48:49;8.02;;;4.50;;
83284;SDS011;73191;50.074;8.488;2024-03-17T14:51:16;8.90;;;4.90;;
83284;SDS011;73191;50.074;8.488;2024-03-17T14:53:43;8.13;;;5.07;;
83284;SDS011;73191;50.074;8.488;2024-03-17T14:56:15;10.63;;;5.20;;
83284;SDS011;73191;50.074;8.488;2024-03-17T14:58:42;10.40;;;4.93;;
83284;SDS011;73191;50.074;8.488;2024-03-17T15:01:09;8.88;;;5.00;;
83284;SDS011;73191;50.074;8.488;2024-03-17T15:03:37;9.32;;;4.65;;
83284;SDS011;73191;50.074;8.488;2024-03-17T15:06:08;9.88;;;4.50;;
83284;SDS011;73191;50.074;8.488;2024-03-17T15:08:35;7.60;;;4.63;;
83284;SDS011;73191;50.074;8.488;2024-03-17T15:11:02;8.75;;;4.70;;
83284;SDS011;73191;50.074;8.488;2024-03-17T15:13:31;8.00;;;5.03;;
83284;SDS011;73191;50.074;8.488;2024-03-17T15:15:57;8.85;;;5.47;;
83284;SDS011;73191;50.074;8.488;2024-03-17T15:18:24;8.10;;;5.13;;
83284;SDS011;73191;50.074;8.488;2024-03-17T15:20:51;11.88;;;5.70;;
83284;SDS011;73191;50.074;8.488;2024-03-17T15:23:18;10.55;;;5.72;;
83284;SDS011;73191;50.074;8.488;2024-03-17T15:25:45;11.27;;;5.22;;
83284;SDS011;73191;50.074;8.488;2024-03-17T15:28:12;8.98;;;5.05;;
83284;SDS011;73191;50.074;8.488;2024-03-17T15:30:40;7.80;;;4.65;;
83284;SDS011;73191;50.074;8.488;2024-03-17T15:33:06;8.63;;;5.32;;
83284;SDS011;73191;50.074;8.488;2024-03-17T15:35:34;7.72;;;4.93;;
83284;SDS011;73191;50.074;8.488;2024-03-17T15:38:01;10.73;;;4.60;;
83284;SDS011;73191;50.074;8.488;2024-03-17T15:40:28;9.40;;;4.85;;
83284;SDS011;73191;50.074;8.488;2024-03-17T15:42:55;8.48;;;4.47;;
83284;SDS011;73191;50.074;8.488;2024-03-17T15:45:24;8.82;;;4.90;;
83284;SDS011;73191;50.074;8.488;2024-03-17T15:47:53;7.20;;;4.30;;